sensor_id;sensor_type;location;lat;lon;timestamp;P1;durP1;ratioP1;P2;durP2;ratioP2
30173;SDS011;16985;50.814;8.530;2022-08-21T00:01:53;11.27;;;5.70;;
30173;SDS011;16985;50.814;8.530;2022-08-21T00:04:19;11.48;;;6.53;;
30173;SDS011;16985;50.814;8.530;2022-08-21T00:06:45;8.75;;;5.65;;
30173;SDS011;16985;50.814;8.530;2022-08-21T00:09:11;7.78;;;5.72;;
30173;SDS011;16985;50.814;8.530;2022-08-21T00:11:37;8.60;;;6.35;;
30173;SDS011;16985;50.814;8.530;2022-08-21T00:14:05;8.35;;;5.80;;
30173;SDS011;16985;50.814;8.530;2022-08-21T00:16:32;8.23;;;5.70;;
30173;SDS011;16985;50.814;8.530;2022-08-21T00:18:59;10.00;;;7.10;;
30173;SDS011;16985;50.814;8.530;2022-08-21T00:21:25;9.30;;;6.32;;
30173;SDS011;16985;50.814;8.530;2022-08-21T00:23:51;8.63;;;6.50;;
30173;SDS011;16985;50.814;8.530;2022-08-21T00:26:17;9.82;;;6.03;;
30173;SDS011;16985;50.814;8.530;2022-08-21T00:28:43;10.20;;;6.32;;
30173;SDS011;16985;50.814;8.530;2022-08-21T00:31:11;8.40;;;6.13;;
30173;SDS011;16985;50.814;8.530;2022-08-21T00:33:37;9.75;;;7.70;;
30173;SDS011;16985;50.814;8.530;2022-08-21T00:36:03;9.70;;;6.53;;
30173;SDS011;16985;50.814;8.530;2022-08-21T00:38:29;8.15;;;5.78;;
30173;SDS011;16985;50.814;8.530;2022-08-21T00:40:57;7.95;;;5.70;;
30173;SDS011;16985;50.814;8.530;2022-08-21T00:43:31;7.57;;;6.38;;
30173;SDS011;16985;50.814;8.530;2022-08-21T00:46:00;7.85;;;6.13;;
30173;SDS011;16985;50.814;8.530;2022-08-21T00:48:27;7.97;;;6.13;;
30173;SDS011;16985;50.814;8.530;2022-08-21T00:51:05;7.07;;;5.70;;
30173;SDS011;16985;50.814;8.530;2022-08-21T00:53:36;10.25;;;6.43;;
30173;SDS011;16985;50.814;8.530;2022-08-21T00:56:05;8.73;;;6.00;;
30173;SDS011;16985;50.814;8.530;2022-08-21T00:58:34;9.10;;;6.78;;
30173;SDS011;16985;50.814;8.530;2022-08-21T01:01:03;9.02;;;6.45;;
30173;SDS011;16985;50.814;8.530;2022-08-21T01:03:31;8.13;;;6.32;;
30173;SDS011;16985;50.814;8.530;2022-08-21T01:05:58;9.82;;;6.85;;
30173;SDS011;16985;50.814;8.530;2022-08-21T01:08:24;8.25;;;6.07;;
30173;SDS011;16985;50.814;8.530;2022-08-21T01:10:52;11.35;;;5.80;;
30173;SDS011;16985;50.814;8.530;2022-08-21T01:13:24;7.95;;;6.25;;
30173;SDS011;16985;50.814;8.530;2022-08-21T01:15:51;7.45;;;5.72;;
30173;SDS011;16985;50.814;8.530;2022-08-21T01:18:20;10.65;;;6.35;;
30173;SDS011;16985;50.814;8.530;2022-08-21T01:23:43;7.63;;;6.80;;
30173;SDS011;16985;50.814;8.530;2022-08-21T01:26:12;8.60;;;6.18;;
30173;SDS011;16985;50.814;8.530;2022-08-21T01:28:49;8.43;;;6.40;;
30173;SDS011;16985;50.814;8.530;2022-08-21T01:31:23;10.18;;;6.53;;
30173;SDS011;16985;50.814;8.530;2022-08-21T01:33:52;8.52;;;6.25;;
30173;SDS011;16985;50.814;8.530;2022-08-21T01:36:18;8.25;;;6.18;;
30173;SDS011;16985;50.814;8.530;2022-08-21T01:38:44;7.82;;;6.50;;
30173;SDS011;16985;50.814;8.530;2022-08-21T01:41:12;9.63;;;7.33;;
30173;SDS011;16985;50.814;8.530;2022-08-21T01:43:39;8.80;;;7.10;;
30173;SDS011;16985;50.814;8.530;2022-08-21T01:46:06;8.33;;;6.47;;
30173;SDS011;16985;50.814;8.530;2022-08-21T01:48:33;8.00;;;6.35;;
30173;SDS011;16985;50.814;8.530;2022-08-21T01:50:59;10.15;;;6.82;;
30173;SDS011;16985;50.814;8.530;2022-08-21T01:53:25;8.32;;;6.38;;
30173;SDS011;16985;50.814;8.530;2022-08-21T01:55:51;9.32;;;6.30;;
30173;SDS011;16985;50.814;8.530;2022-08-21T01:58:17;8.55;;;6.55;;
30173;SDS011;16985;50.814;8.530;2022-08-21T02:00:42;9.20;;;6.82;;
30173;SDS011;16985;50.814;8.530;2022-08-21T02:03:08;8.32;;;6.55;;
30173;SDS011;16985;50.814;8.530;2022-08-21T02:05:34;8.25;;;6.88;;
30173;SDS011;16985;50.814;8.530;2022-08-21T02:08:00;8.35;;;5.70;;
30173;SDS011;16985;50.814;8.530;2022-08-21T02:10:28;8.45;;;6.18;;
30173;SDS011;16985;50.814;8.530;2022-08-21T02:12:57;8.55;;;6.93;;
30173;SDS011;16985;50.814;8.530;2022-08-21T02:15:25;9.07;;;6.75;;
30173;SDS011;16985;50.814;8.530;2022-08-21T02:17:57;8.35;;;7.20;;
30173;SDS011;16985;50.814;8.530;2022-08-21T02:22:59;9.05;;;6.95;;
30173;SDS011;16985;50.814;8.530;2022-08-21T02:25:26;9.07;;;7.22;;
30173;SDS011;16985;50.814;8.530;2022-08-21T02:27:52;9.18;;;6.35;;
30173;SDS011;16985;50.814;8.530;2022-08-21T02:30:20;8.27;;;6.32;;
30173;SDS011;16985;50.814;8.530;2022-08-21T02:32:53;10.60;;;7.40;;
30173;SDS011;16985;50.814;8.530;2022-08-21T02:35:19;13.05;;;7.68;;
30173;SDS011;16985;50.814;8.530;2022-08-21T02:37:53;9.35;;;7.00;;
30173;SDS011;16985;50.814;8.530;2022-08-21T02:40:25;11.95;;;7.47;;
30173;SDS011;16985;50.814;8.530;2022-08-21T02:42:56;10.18;;;6.70;;
30173;SDS011;16985;50.814;8.530;2022-08-21T02:45:23;9.07;;;6.90;;
30173;SDS011;16985;50.814;8.530;2022-08-21T02:47:57;9.75;;;6.60;;
30173;SDS011;16985;50.814;8.530;2022-08-21T02:50:29;8.05;;;6.82;;
30173;SDS011;16985;50.814;8.530;2022-08-21T02:53:01;8.73;;;7.60;;
30173;SDS011;16985;50.814;8.530;2022-08-21T02:55:29;10.48;;;7.63;;
30173;SDS011;16985;50.814;8.530;2022-08-21T03:00:23;14.13;;;7.30;;
30173;SDS011;16985;50.814;8.530;2022-08-21T03:05:18;7.90;;;6.45;;
30173;SDS011;16985;50.814;8.530;2022-08-21T03:07:44;8.20;;;6.72;;
30173;SDS011;16985;50.814;8.530;2022-08-21T03:10:12;7.70;;;6.45;;
30173;SDS011;16985;50.814;8.530;2022-08-21T03:12:39;9.80;;;6.80;;
30173;SDS011;16985;50.814;8.530;2022-08-21T03:15:06;9.43;;;6.50;;
30173;SDS011;16985;50.814;8.530;2022-08-21T03:17:35;9.65;;;6.95;;
30173;SDS011;16985;50.814;8.530;2022-08-21T03:20:01;8.20;;;7.30;;
30173;SDS011;16985;50.814;8.530;2022-08-21T03:22:30;9.23;;;7.30;;
30173;SDS011;16985;50.814;8.530;2022-08-21T03:24:57;9.27;;;6.57;;
30173;SDS011;16985;50.814;8.530;2022-08-21T03:27:24;8.95;;;7.20;;
30173;SDS011;16985;50.814;8.530;2022-08-21T03:29:51;10.13;;;7.40;;
30173;SDS011;16985;50.814;8.530;2022-08-21T03:32:18;10.40;;;7.75;;
30173;SDS011;16985;50.814;8.530;2022-08-21T03:34:44;8.95;;;7.28;;
30173;SDS011;16985;50.814;8.530;2022-08-21T03:37:11;10.73;;;7.30;;
30173;SDS011;16985;50.814;8.530;2022-08-21T03:39:38;8.80;;;6.93;;
30173;SDS011;16985;50.814;8.530;2022-08-21T03:42:06;9.70;;;6.65;;
30173;SDS011;16985;50.814;8.530;2022-08-21T03:44:32;9.13;;;6.97;;
30173;SDS011;16985;50.814;8.530;2022-08-21T03:46:58;8.57;;;6.95;;
30173;SDS011;16985;50.814;8.530;2022-08-21T03:49:24;8.88;;;7.28;;
30173;SDS011;16985;50.814;8.530;2022-08-21T03:51:50;11.35;;;8.57;;
30173;SDS011;16985;50.814;8.530;2022-08-21T03:54:16;8.65;;;7.45;;
30173;SDS011;16985;50.814;8.530;2022-08-21T03:56:42;8.77;;;7.50;;
30173;SDS011;16985;50.814;8.530;2022-08-21T03:59:08;12.15;;;8.45;;
30173;SDS011;16985;50.814;8.530;2022-08-21T04:01:35;7.97;;;7.18;;
30173;SDS011;16985;50.814;8.530;2022-08-21T04:04:01;8.70;;;6.55;;
30173;SDS011;16985;50.814;8.530;2022-08-21T04:06:28;9.47;;;6.67;;
30173;SDS011;16985;50.814;8.530;2022-08-21T04:08:54;9.93;;;7.35;;
30173;SDS011;16985;50.814;8.530;2022-08-21T04:11:20;10.13;;;6.78;;
30173;SDS011;16985;50.814;8.530;2022-08-21T04:13:47;9.15;;;7.10;;
30173;SDS011;16985;50.814;8.530;2022-08-21T04:16:14;8.55;;;7.35;;
30173;SDS011;16985;50.814;8.530;2022-08-21T04:18:40;11.00;;;7.50;;
30173;SDS011;16985;50.814;8.530;2022-08-21T04:21:07;9.77;;;7.28;;
30173;SDS011;16985;50.814;8.530;2022-08-21T04:23:36;8.48;;;7.32;;
30173;SDS011;16985;50.814;8.530;2022-08-21T04:26:02;8.48;;;7.53;;
30173;SDS011;16985;50.814;8.530;2022-08-21T04:28:28;8.18;;;6.55;;
30173;SDS011;16985;50.814;8.530;2022-08-21T04:30:54;10.10;;;6.88;;
30173;SDS011;16985;50.814;8.530;2022-08-21T04:33:21;8.10;;;6.47;;
30173;SDS011;16985;50.814;8.530;2022-08-21T04:35:47;9.63;;;6.32;;
30173;SDS011;16985;50.814;8.530;2022-08-21T04:38:14;6.85;;;5.72;;
30173;SDS011;16985;50.814;8.530;2022-08-21T04:40:40;8.48;;;6.90;;
30173;SDS011;16985;50.814;8.530;2022-08-21T04:43:07;7.80;;;6.82;;
30173;SDS011;16985;50.814;8.530;2022-08-21T04:45:39;11.95;;;6.85;;
30173;SDS011;16985;50.814;8.530;2022-08-21T04:48:10;9.13;;;6.60;;
30173;SDS011;16985;50.814;8.530;2022-08-21T04:50:49;8.73;;;7.22;;
30173;SDS011;16985;50.814;8.530;2022-08-21T04:53:24;7.78;;;6.97;;
30173;SDS011;16985;50.814;8.530;2022-08-21T04:55:55;7.40;;;6.32;;
30173;SDS011;16985;50.814;8.530;2022-08-21T04:58:29;11.40;;;7.35;;
30173;SDS011;16985;50.814;8.530;2022-08-21T05:00:58;9.65;;;7.03;;
30173;SDS011;16985;50.814;8.530;2022-08-21T05:03:26;8.27;;;6.95;;
30173;SDS011;16985;50.814;8.530;2022-08-21T05:05:56;7.65;;;6.60;;
30173;SDS011;16985;50.814;8.530;2022-08-21T05:08:23;9.73;;;6.82;;
30173;SDS011;16985;50.814;8.530;2022-08-21T05:13:16;9.40;;;6.47;;
30173;SDS011;16985;50.814;8.530;2022-08-21T05:15:43;8.52;;;6.45;;
30173;SDS011;16985;50.814;8.530;2022-08-21T05:18:09;8.70;;;6.38;;
30173;SDS011;16985;50.814;8.530;2022-08-21T05:20:35;7.35;;;6.13;;
30173;SDS011;16985;50.814;8.530;2022-08-21T05:23:01;7.30;;;6.43;;
30173;SDS011;16985;50.814;8.530;2022-08-21T05:25:35;8.50;;;6.25;;
30173;SDS011;16985;50.814;8.530;2022-08-21T05:28:01;7.38;;;6.15;;
30173;SDS011;16985;50.814;8.530;2022-08-21T05:30:28;6.95;;;6.25;;
30173;SDS011;16985;50.814;8.530;2022-08-21T05:32:58;8.38;;;6.55;;
30173;SDS011;16985;50.814;8.530;2022-08-21T05:35:26;9.68;;;6.43;;
30173;SDS011;16985;50.814;8.530;2022-08-21T05:37:52;8.77;;;6.43;;
30173;SDS011;16985;50.814;8.530;2022-08-21T05:40:18;9.23;;;7.03;;
30173;SDS011;16985;50.814;8.530;2022-08-21T05:42:44;8.45;;;7.15;;
30173;SDS011;16985;50.814;8.530;2022-08-21T05:45:10;15.02;;;7.78;;
30173;SDS011;16985;50.814;8.530;2022-08-21T05:47:36;11.63;;;8.15;;
30173;SDS011;16985;50.814;8.530;2022-08-21T05:50:02;11.93;;;8.90;;
30173;SDS011;16985;50.814;8.530;2022-08-21T05:52:29;11.77;;;8.30;;
30173;SDS011;16985;50.814;8.530;2022-08-21T05:54:55;11.35;;;9.30;;
30173;SDS011;16985;50.814;8.530;2022-08-21T05:57:21;12.32;;;9.07;;
30173;SDS011;16985;50.814;8.530;2022-08-21T05:59:47;13.68;;;8.93;;
30173;SDS011;16985;50.814;8.530;2022-08-21T06:02:16;12.07;;;8.77;;
30173;SDS011;16985;50.814;8.530;2022-08-21T06:04:43;14.23;;;8.50;;
30173;SDS011;16985;50.814;8.530;2022-08-21T06:07:09;12.35;;;9.55;;
30173;SDS011;16985;50.814;8.530;2022-08-21T06:09:36;9.65;;;8.60;;
30173;SDS011;16985;50.814;8.530;2022-08-21T06:12:10;13.43;;;9.02;;
30173;SDS011;16985;50.814;8.530;2022-08-21T06:14:38;11.18;;;9.48;;
30173;SDS011;16985;50.814;8.530;2022-08-21T06:17:06;12.27;;;9.23;;
30173;SDS011;16985;50.814;8.530;2022-08-21T06:19:34;16.65;;;10.55;;
30173;SDS011;16985;50.814;8.530;2022-08-21T06:22:01;13.43;;;9.32;;
30173;SDS011;16985;50.814;8.530;2022-08-21T06:24:27;14.65;;;8.85;;
30173;SDS011;16985;50.814;8.530;2022-08-21T06:26:53;12.05;;;8.98;;
30173;SDS011;16985;50.814;8.530;2022-08-21T06:29:19;12.02;;;8.35;;
30173;SDS011;16985;50.814;8.530;2022-08-21T06:31:47;13.13;;;9.25;;
30173;SDS011;16985;50.814;8.530;2022-08-21T06:36:40;15.82;;;9.25;;
30173;SDS011;16985;50.814;8.530;2022-08-21T06:39:06;12.60;;;9.50;;
30173;SDS011;16985;50.814;8.530;2022-08-21T06:41:32;10.45;;;8.73;;
30173;SDS011;16985;50.814;8.530;2022-08-21T06:43:59;15.65;;;9.82;;
30173;SDS011;16985;50.814;8.530;2022-08-21T06:46:25;17.10;;;10.57;;
30173;SDS011;16985;50.814;8.530;2022-08-21T06:48:54;13.70;;;9.63;;
30173;SDS011;16985;50.814;8.530;2022-08-21T06:51:21;13.52;;;8.77;;
30173;SDS011;16985;50.814;8.530;2022-08-21T06:53:47;12.38;;;8.20;;
30173;SDS011;16985;50.814;8.530;2022-08-21T06:56:14;12.90;;;8.60;;
30173;SDS011;16985;50.814;8.530;2022-08-21T06:58:40;12.60;;;8.68;;
30173;SDS011;16985;50.814;8.530;2022-08-21T07:01:06;13.75;;;8.38;;
30173;SDS011;16985;50.814;8.530;2022-08-21T07:03:33;12.55;;;7.65;;
30173;SDS011;16985;50.814;8.530;2022-08-21T07:06:04;16.00;;;9.13;;
30173;SDS011;16985;50.814;8.530;2022-08-21T07:08:31;12.65;;;8.10;;
30173;SDS011;16985;50.814;8.530;2022-08-21T07:11:00;10.93;;;8.57;;
30173;SDS011;16985;50.814;8.530;2022-08-21T07:13:32;9.85;;;7.18;;
30173;SDS011;16985;50.814;8.530;2022-08-21T07:15:58;16.00;;;7.97;;
30173;SDS011;16985;50.814;8.530;2022-08-21T07:18:24;10.40;;;8.45;;
30173;SDS011;16985;50.814;8.530;2022-08-21T07:20:50;13.50;;;8.43;;
30173;SDS011;16985;50.814;8.530;2022-08-21T07:23:19;17.10;;;8.15;;
30173;SDS011;16985;50.814;8.530;2022-08-21T07:25:51;17.02;;;8.27;;
30173;SDS011;16985;50.814;8.530;2022-08-21T07:28:17;15.30;;;8.32;;
30173;SDS011;16985;50.814;8.530;2022-08-21T07:30:43;13.32;;;8.52;;
30173;SDS011;16985;50.814;8.530;2022-08-21T07:33:09;10.85;;;7.95;;
30173;SDS011;16985;50.814;8.530;2022-08-21T07:35:35;13.90;;;8.23;;
30173;SDS011;16985;50.814;8.530;2022-08-21T07:38:01;11.75;;;7.72;;
30173;SDS011;16985;50.814;8.530;2022-08-21T07:40:27;11.43;;;7.78;;
30173;SDS011;16985;50.814;8.530;2022-08-21T07:42:52;13.93;;;7.57;;
30173;SDS011;16985;50.814;8.530;2022-08-21T07:45:20;9.88;;;7.00;;
30173;SDS011;16985;50.814;8.530;2022-08-21T07:47:49;14.43;;;7.75;;
30173;SDS011;16985;50.814;8.530;2022-08-21T07:50:16;13.90;;;7.60;;
30173;SDS011;16985;50.814;8.530;2022-08-21T07:52:42;12.43;;;6.70;;
30173;SDS011;16985;50.814;8.530;2022-08-21T07:55:09;13.93;;;7.30;;
30173;SDS011;16985;50.814;8.530;2022-08-21T07:57:38;14.50;;;7.22;;
30173;SDS011;16985;50.814;8.530;2022-08-21T08:00:06;14.25;;;6.97;;
30173;SDS011;16985;50.814;8.530;2022-08-21T08:02:39;15.90;;;7.68;;
30173;SDS011;16985;50.814;8.530;2022-08-21T08:05:09;12.38;;;6.28;;
30173;SDS011;16985;50.814;8.530;2022-08-21T08:07:36;17.77;;;6.28;;
30173;SDS011;16985;50.814;8.530;2022-08-21T08:10:03;14.52;;;6.55;;
30173;SDS011;16985;50.814;8.530;2022-08-21T08:12:32;12.45;;;6.22;;
30173;SDS011;16985;50.814;8.530;2022-08-21T08:14:59;9.50;;;6.10;;
30173;SDS011;16985;50.814;8.530;2022-08-21T08:17:26;14.70;;;5.33;;
30173;SDS011;16985;50.814;8.530;2022-08-21T08:19:52;16.92;;;5.85;;
30173;SDS011;16985;50.814;8.530;2022-08-21T08:22:20;11.40;;;6.03;;
30173;SDS011;16985;50.814;8.530;2022-08-21T08:24:51;12.98;;;5.40;;
30173;SDS011;16985;50.814;8.530;2022-08-21T08:27:17;11.18;;;5.70;;
30173;SDS011;16985;50.814;8.530;2022-08-21T08:29:43;10.80;;;5.70;;
30173;SDS011;16985;50.814;8.530;2022-08-21T08:32:09;16.75;;;6.43;;
30173;SDS011;16985;50.814;8.530;2022-08-21T08:34:36;11.75;;;5.00;;
30173;SDS011;16985;50.814;8.530;2022-08-21T08:37:04;11.70;;;4.78;;
30173;SDS011;16985;50.814;8.530;2022-08-21T08:39:32;12.52;;;6.00;;
30173;SDS011;16985;50.814;8.530;2022-08-21T08:42:01;13.98;;;5.43;;
30173;SDS011;16985;50.814;8.530;2022-08-21T08:44:50;15.05;;;4.90;;
30173;SDS011;16985;50.814;8.530;2022-08-21T08:47:24;9.60;;;4.65;;
30173;SDS011;16985;50.814;8.530;2022-08-21T08:53:00;12.32;;;4.03;;
30173;SDS011;16985;50.814;8.530;2022-08-21T08:55:36;14.60;;;4.60;;
30173;SDS011;16985;50.814;8.530;2022-08-21T08:58:12;14.80;;;3.90;;
30173;SDS011;16985;50.814;8.530;2022-08-21T09:00:50;7.93;;;3.85;;
30173;SDS011;16985;50.814;8.530;2022-08-21T09:03:17;7.40;;;3.58;;
30173;SDS011;16985;50.814;8.530;2022-08-21T09:05:48;8.02;;;3.97;;
30173;SDS011;16985;50.814;8.530;2022-08-21T09:08:28;8.13;;;3.78;;
30173;SDS011;16985;50.814;8.530;2022-08-21T09:11:15;13.40;;;5.43;;
30173;SDS011;16985;50.814;8.530;2022-08-21T09:17:14;20.17;;;4.90;;
30173;SDS011;16985;50.814;8.530;2022-08-21T09:23:11;12.88;;;3.38;;
30173;SDS011;16985;50.814;8.530;2022-08-21T09:26:21;8.05;;;3.25;;
30173;SDS011;16985;50.814;8.530;2022-08-21T09:28:53;8.52;;;2.72;;
30173;SDS011;16985;50.814;8.530;2022-08-21T09:31:31;9.95;;;2.90;;
30173;SDS011;16985;50.814;8.530;2022-08-21T09:34:08;6.05;;;2.50;;
30173;SDS011;16985;50.814;8.530;2022-08-21T09:36:37;7.35;;;2.65;;
30173;SDS011;16985;50.814;8.530;2022-08-21T09:39:09;7.65;;;2.63;;
30173;SDS011;16985;50.814;8.530;2022-08-21T09:41:39;11.60;;;2.70;;
30173;SDS011;16985;50.814;8.530;2022-08-21T09:44:06;9.63;;;2.83;;
30173;SDS011;16985;50.814;8.530;2022-08-21T09:48:59;10.45;;;2.97;;
30173;SDS011;16985;50.814;8.530;2022-08-21T09:51:32;6.10;;;2.83;;
30173;SDS011;16985;50.814;8.530;2022-08-21T09:56:33;6.75;;;2.08;;
30173;SDS011;16985;50.814;8.530;2022-08-21T09:59:39;8.45;;;2.60;;
30173;SDS011;16985;50.814;8.530;2022-08-21T10:04:57;9.25;;;2.45;;
30173;SDS011;16985;50.814;8.530;2022-08-21T10:07:27;11.02;;;2.05;;
30173;SDS011;16985;50.814;8.530;2022-08-21T10:15:43;5.15;;;2.05;;
30173;SDS011;16985;50.814;8.530;2022-08-21T10:23:57;8.45;;;2.35;;
30173;SDS011;16985;50.814;8.530;2022-08-21T10:37:59;3.70;;;1.93;;
30173;SDS011;16985;50.814;8.530;2022-08-21T10:41:00;5.80;;;1.92;;
30173;SDS011;16985;50.814;8.530;2022-08-21T10:57:05;4.90;;;1.58;;
30173;SDS011;16985;50.814;8.530;2022-08-21T10:59:44;7.43;;;1.55;;
30173;SDS011;16985;50.814;8.530;2022-08-21T11:02:35;4.97;;;1.65;;
30173;SDS011;16985;50.814;8.530;2022-08-21T11:05:14;5.03;;;1.95;;
30173;SDS011;16985;50.814;8.530;2022-08-21T11:10:47;6.10;;;1.90;;
30173;SDS011;16985;50.814;8.530;2022-08-21T11:13:50;3.25;;;1.80;;
30173;SDS011;16985;50.814;8.530;2022-08-21T11:16:18;2.88;;;1.75;;
30173;SDS011;16985;50.814;8.530;2022-08-21T11:19:13;4.25;;;2.00;;
30173;SDS011;16985;50.814;8.530;2022-08-21T11:24:42;5.07;;;1.67;;
30173;SDS011;16985;50.814;8.530;2022-08-21T11:27:22;3.50;;;1.70;;
30173;SDS011;16985;50.814;8.530;2022-08-21T11:29:55;3.93;;;1.70;;
30173;SDS011;16985;50.814;8.530;2022-08-21T11:38:27;6.32;;;1.60;;
30173;SDS011;16985;50.814;8.530;2022-08-21T11:50:15;3.00;;;1.45;;
30173;SDS011;16985;50.814;8.530;2022-08-21T11:52:45;4.68;;;1.67;;
30173;SDS011;16985;50.814;8.530;2022-08-21T11:58:05;7.43;;;1.47;;
30173;SDS011;16985;50.814;8.530;2022-08-21T12:01:03;3.30;;;1.25;;
30173;SDS011;16985;50.814;8.530;2022-08-21T12:03:35;6.55;;;2.00;;
30173;SDS011;16985;50.814;8.530;2022-08-21T12:06:30;8.68;;;2.03;;
30173;SDS011;16985;50.814;8.530;2022-08-21T12:09:03;6.15;;;2.22;;
30173;SDS011;16985;50.814;8.530;2022-08-21T12:11:48;3.28;;;1.30;;
30173;SDS011;16985;50.814;8.530;2022-08-21T12:14:42;5.13;;;1.40;;
30173;SDS011;16985;50.814;8.530;2022-08-21T12:17:22;2.35;;;1.08;;
30173;SDS011;16985;50.814;8.530;2022-08-21T12:20:15;2.40;;;1.13;;
30173;SDS011;16985;50.814;8.530;2022-08-21T12:22:49;3.95;;;1.30;;
30173;SDS011;16985;50.814;8.530;2022-08-21T12:25:26;2.55;;;1.10;;
30173;SDS011;16985;50.814;8.530;2022-08-21T12:28:10;3.83;;;1.20;;
30173;SDS011;16985;50.814;8.530;2022-08-21T12:30:41;3.47;;;1.33;;
30173;SDS011;16985;50.814;8.530;2022-08-21T12:33:29;3.05;;;1.23;;
30173;SDS011;16985;50.814;8.530;2022-08-21T12:36:07;2.03;;;1.13;;
30173;SDS011;16985;50.814;8.530;2022-08-21T12:41:32;4.25;;;1.50;;
30173;SDS011;16985;50.814;8.530;2022-08-21T12:44:12;3.10;;;0.85;;
30173;SDS011;16985;50.814;8.530;2022-08-21T12:47:21;3.80;;;1.08;;
30173;SDS011;16985;50.814;8.530;2022-08-21T12:53:21;5.95;;;2.85;;
30173;SDS011;16985;50.814;8.530;2022-08-21T12:55:55;5.00;;;2.42;;
30173;SDS011;16985;50.814;8.530;2022-08-21T12:58:26;6.18;;;2.20;;
30173;SDS011;16985;50.814;8.530;2022-08-21T13:00:59;5.40;;;2.03;;
30173;SDS011;16985;50.814;8.530;2022-08-21T13:03:36;4.63;;;1.53;;
30173;SDS011;16985;50.814;8.530;2022-08-21T13:06:03;4.60;;;1.60;;
30173;SDS011;16985;50.814;8.530;2022-08-21T13:08:30;2.38;;;1.63;;
30173;SDS011;16985;50.814;8.530;2022-08-21T13:11:01;4.72;;;1.42;;
30173;SDS011;16985;50.814;8.530;2022-08-21T13:13:30;1.80;;;1.27;;
30173;SDS011;16985;50.814;8.530;2022-08-21T13:16:02;4.40;;;1.47;;
30173;SDS011;16985;50.814;8.530;2022-08-21T13:18:32;3.55;;;1.55;;
30173;SDS011;16985;50.814;8.530;2022-08-21T13:21:09;3.38;;;1.20;;
30173;SDS011;16985;50.814;8.530;2022-08-21T13:23:38;4.32;;;1.58;;
30173;SDS011;16985;50.814;8.530;2022-08-21T13:26:12;7.38;;;2.05;;
30173;SDS011;16985;50.814;8.530;2022-08-21T13:28:44;4.55;;;1.30;;
30173;SDS011;16985;50.814;8.530;2022-08-21T13:31:13;4.53;;;1.58;;
30173;SDS011;16985;50.814;8.530;2022-08-21T13:33:46;4.75;;;1.40;;
30173;SDS011;16985;50.814;8.530;2022-08-21T13:36:17;3.92;;;1.35;;
30173;SDS011;16985;50.814;8.530;2022-08-21T13:38:50;3.53;;;1.45;;
30173;SDS011;16985;50.814;8.530;2022-08-21T13:41:23;3.38;;;1.30;;
30173;SDS011;16985;50.814;8.530;2022-08-21T13:44:02;3.20;;;1.27;;
30173;SDS011;16985;50.814;8.530;2022-08-21T13:46:42;4.85;;;1.25;;
30173;SDS011;16985;50.814;8.530;2022-08-21T13:49:09;2.67;;;1.30;;
30173;SDS011;16985;50.814;8.530;2022-08-21T13:51:38;2.20;;;1.20;;
30173;SDS011;16985;50.814;8.530;2022-08-21T13:54:14;4.75;;;1.50;;
30173;SDS011;16985;50.814;8.530;2022-08-21T13:56:51;6.43;;;1.30;;
30173;SDS011;16985;50.814;8.530;2022-08-21T13:59:24;2.38;;;1.08;;
30173;SDS011;16985;50.814;8.530;2022-08-21T14:01:54;1.80;;;1.10;;
30173;SDS011;16985;50.814;8.530;2022-08-21T14:04:50;4.80;;;1.20;;
30173;SDS011;16985;50.814;8.530;2022-08-21T14:07:30;4.35;;;1.48;;
30173;SDS011;16985;50.814;8.530;2022-08-21T14:10:04;2.58;;;1.23;;
30173;SDS011;16985;50.814;8.530;2022-08-21T14:12:55;3.28;;;1.27;;
30173;SDS011;16985;50.814;8.530;2022-08-21T14:15:29;3.90;;;1.20;;
30173;SDS011;16985;50.814;8.530;2022-08-21T14:18:07;2.05;;;1.23;;
30173;SDS011;16985;50.814;8.530;2022-08-21T14:20:39;7.03;;;1.55;;
30173;SDS011;16985;50.814;8.530;2022-08-21T14:23:05;4.03;;;1.65;;
30173;SDS011;16985;50.814;8.530;2022-08-21T14:25:37;3.40;;;1.20;;
30173;SDS011;16985;50.814;8.530;2022-08-21T14:28:40;4.28;;;1.25;;
30173;SDS011;16985;50.814;8.530;2022-08-21T14:31:12;5.43;;;1.23;;
30173;SDS011;16985;50.814;8.530;2022-08-21T14:33:45;3.83;;;2.08;;
30173;SDS011;16985;50.814;8.530;2022-08-21T14:36:11;6.68;;;1.35;;
30173;SDS011;16985;50.814;8.530;2022-08-21T14:38:37;3.60;;;1.58;;
30173;SDS011;16985;50.814;8.530;2022-08-21T14:41:12;2.35;;;1.13;;
30173;SDS011;16985;50.814;8.530;2022-08-21T14:43:47;3.17;;;1.00;;
30173;SDS011;16985;50.814;8.530;2022-08-21T14:46:17;2.95;;;1.15;;
30173;SDS011;16985;50.814;8.530;2022-08-21T14:48:48;4.82;;;1.35;;
30173;SDS011;16985;50.814;8.530;2022-08-21T14:51:14;3.03;;;1.13;;
30173;SDS011;16985;50.814;8.530;2022-08-21T14:53:40;7.85;;;1.20;;
30173;SDS011;16985;50.814;8.530;2022-08-21T14:56:06;2.45;;;1.00;;
30173;SDS011;16985;50.814;8.530;2022-08-21T14:58:33;4.45;;;1.40;;
30173;SDS011;16985;50.814;8.530;2022-08-21T15:01:04;1.60;;;0.93;;
30173;SDS011;16985;50.814;8.530;2022-08-21T15:03:32;3.92;;;1.40;;
30173;SDS011;16985;50.814;8.530;2022-08-21T15:05:59;5.13;;;1.43;;
30173;SDS011;16985;50.814;8.530;2022-08-21T15:08:25;3.30;;;1.30;;
30173;SDS011;16985;50.814;8.530;2022-08-21T15:10:52;3.65;;;1.45;;
30173;SDS011;16985;50.814;8.530;2022-08-21T15:13:19;2.97;;;1.05;;
30173;SDS011;16985;50.814;8.530;2022-08-21T15:15:47;3.95;;;1.73;;
30173;SDS011;16985;50.814;8.530;2022-08-21T15:18:17;2.80;;;1.48;;
30173;SDS011;16985;50.814;8.530;2022-08-21T15:20:45;5.50;;;1.30;;
30173;SDS011;16985;50.814;8.530;2022-08-21T15:23:10;2.58;;;1.52;;
30173;SDS011;16985;50.814;8.530;2022-08-21T15:25:39;2.80;;;1.50;;
30173;SDS011;16985;50.814;8.530;2022-08-21T15:28:06;2.85;;;1.35;;
30173;SDS011;16985;50.814;8.530;2022-08-21T15:30:32;2.67;;;1.20;;
30173;SDS011;16985;50.814;8.530;2022-08-21T15:33:01;2.97;;;1.33;;
30173;SDS011;16985;50.814;8.530;2022-08-21T15:35:27;5.65;;;1.40;;
30173;SDS011;16985;50.814;8.530;2022-08-21T15:37:53;2.05;;;0.95;;
30173;SDS011;16985;50.814;8.530;2022-08-21T15:40:19;2.00;;;1.40;;
30173;SDS011;16985;50.814;8.530;2022-08-21T15:42:45;3.60;;;1.30;;
30173;SDS011;16985;50.814;8.530;2022-08-21T15:45:11;2.78;;;1.30;;
30173;SDS011;16985;50.814;8.530;2022-08-21T15:47:39;3.13;;;1.38;;
30173;SDS011;16985;50.814;8.530;2022-08-21T15:50:10;3.13;;;1.30;;
30173;SDS011;16985;50.814;8.530;2022-08-21T15:52:37;2.63;;;1.10;;
30173;SDS011;16985;50.814;8.530;2022-08-21T15:55:04;2.35;;;1.17;;
30173;SDS011;16985;50.814;8.530;2022-08-21T15:57:31;3.47;;;1.33;;
30173;SDS011;16985;50.814;8.530;2022-08-21T15:59:58;1.92;;;1.00;;
30173;SDS011;16985;50.814;8.530;2022-08-21T16:02:40;1.70;;;1.08;;
30173;SDS011;16985;50.814;8.530;2022-08-21T16:05:10;3.42;;;1.10;;
30173;SDS011;16985;50.814;8.530;2022-08-21T16:07:37;2.53;;;1.15;;
30173;SDS011;16985;50.814;8.530;2022-08-21T16:10:04;2.78;;;1.08;;
30173;SDS011;16985;50.814;8.530;2022-08-21T16:12:32;2.80;;;1.00;;
30173;SDS011;16985;50.814;8.530;2022-08-21T16:15:04;1.92;;;0.95;;
30173;SDS011;16985;50.814;8.530;2022-08-21T16:17:33;4.15;;;1.23;;
30173;SDS011;16985;50.814;8.530;2022-08-21T16:20:03;1.50;;;1.00;;
30173;SDS011;16985;50.814;8.530;2022-08-21T16:22:33;1.70;;;1.08;;
30173;SDS011;16985;50.814;8.530;2022-08-21T16:24:59;2.95;;;1.10;;
30173;SDS011;16985;50.814;8.530;2022-08-21T16:27:24;4.95;;;0.95;;
30173;SDS011;16985;50.814;8.530;2022-08-21T16:29:50;1.83;;;1.00;;
30173;SDS011;16985;50.814;8.530;2022-08-21T16:32:16;2.70;;;1.42;;
30173;SDS011;16985;50.814;8.530;2022-08-21T16:34:46;4.32;;;1.00;;
30173;SDS011;16985;50.814;8.530;2022-08-21T16:37:14;2.35;;;1.33;;
30173;SDS011;16985;50.814;8.530;2022-08-21T16:39:41;4.00;;;1.52;;
30173;SDS011;16985;50.814;8.530;2022-08-21T16:42:07;2.10;;;1.00;;